DAUH/HME METAR and TAF weather

Enter ICAO airport designator
Station Type Date Time Source
DAUH METAR 2020/10/22 03:30 UTC NOAA

DAUH 220330Z 36006KT CAVOK 20/05 Q1015


Station Type Date Time Source
DAUH Decoded METAR 2020/10/22 03:30 UTC NOAA

Hassi-Messaoud, Algeria (DAUH) 31-40N 006-09E 142M
Oct 21, 2020 - 11:30 PM EDT / 2020.10.22 0330 UTC
Wind: from the N (360 degrees) at 7 MPH (6 KT):0
Visibility: greater than 7 mile(s):0
Temperature: 68 F (20 C)
Dew Point: 41 F (5 C)
Relative Humidity: 37%
Pressure (altimeter): 29.97 in. Hg (1015 hPa)
ob: DAUH 220330Z 36006KT CAVOK 20/05 Q1015
cycle: 3

Station Type Date Time Source
DAUH TAF 2020/10/21 18:40 UTC NOAA

TAF DAUH 211700Z 2118/2218 06012KT CAVOK

Example: see airport list